sensor_id;sensor_type;location;lat;lon;timestamp;pressure;altitude;pressure_sealevel;temperature;humidity
829;BME280;396;52.558;13.188;2023-08-06T00:01:31;100321.03;;;18.31;100.00
829;BME280;396;52.558;13.188;2023-08-06T00:03:58;100317.94;;;18.33;100.00
829;BME280;396;52.558;13.188;2023-08-06T00:06:25;100316.00;;;18.33;100.00
829;BME280;396;52.558;13.188;2023-08-06T00:08:52;100309.34;;;18.34;100.00
829;BME280;396;52.558;13.188;2023-08-06T00:11:21;100316.41;;;18.35;100.00
829;BME280;396;52.558;13.188;2023-08-06T00:13:48;100313.16;;;18.30;100.00
829;BME280;396;52.558;13.188;2023-08-06T00:16:14;100318.28;;;18.31;100.00
829;BME280;396;52.558;13.188;2023-08-06T00:18:41;100317.50;;;18.31;100.00
829;BME280;396;52.558;13.188;2023-08-06T00:21:08;100316.00;;;18.33;100.00
829;BME280;396;52.558;13.188;2023-08-06T00:23:35;100307.69;;;18.30;100.00
829;BME280;396;52.558;13.188;2023-08-06T00:26:01;100307.31;;;18.31;100.00
829;BME280;396;52.558;13.188;2023-08-06T00:28:29;100303.41;;;18.32;100.00
829;BME280;396;52.558;13.188;2023-08-06T00:30:56;100299.53;;;18.33;100.00
829;BME280;396;52.558;13.188;2023-08-06T00:33:23;100299.09;;;18.31;100.00
829;BME280;396;52.558;13.188;2023-08-06T00:35:50;100298.28;;;18.31;100.00
829;BME280;396;52.558;13.188;2023-08-06T00:38:17;100303.41;;;18.32;100.00
829;BME280;396;52.558;13.188;2023-08-06T00:40:44;100300.94;;;18.27;100.00
829;BME280;396;52.558;13.188;2023-08-06T00:43:11;100300.53;;;18.25;100.00
829;BME280;396;52.558;13.188;2023-08-06T00:45:39;100299.00;;;18.28;100.00
829;BME280;396;52.558;13.188;2023-08-06T00:48:06;100288.84;;;18.28;100.00
829;BME280;396;52.558;13.188;2023-08-06T00:50:33;100293.59;;;18.31;100.00
829;BME280;396;52.558;13.188;2023-08-06T00:53:01;100290.28;;;18.22;100.00
829;BME280;396;52.558;13.188;2023-08-06T00:55:28;100297.34;;;18.23;100.00
829;BME280;396;52.558;13.188;2023-08-06T00:57:55;100294.09;;;18.18;100.00
829;BME280;396;52.558;13.188;2023-08-06T01:00:22;100292.50;;;18.17;100.00
829;BME280;396;52.558;13.188;2023-08-06T01:02:51;100286.25;;;18.16;100.00
829;BME280;396;52.558;13.188;2023-08-06T01:05:20;100287.81;;;18.17;99.80
829;BME280;396;52.558;13.188;2023-08-06T01:07:51;100278.03;;;18.16;100.00
829;BME280;396;52.558;13.188;2023-08-06T01:10:31;100276.00;;;18.13;100.00
829;BME280;396;52.558;13.188;2023-08-06T01:13:09;100273.69;;;18.15;100.00
829;BME280;396;52.558;13.188;2023-08-06T01:15:42;100268.25;;;18.19;100.00
829;BME280;396;52.558;13.188;2023-08-06T01:18:12;100267.47;;;18.18;100.00
829;BME280;396;52.558;13.188;2023-08-06T01:20:40;100266.75;;;18.21;100.00
829;BME280;396;52.558;13.188;2023-08-06T01:23:07;100261.66;;;18.20;100.00
829;BME280;396;52.558;13.188;2023-08-06T01:25:35;100261.28;;;18.21;100.00
829;BME280;396;52.558;13.188;2023-08-06T01:28:13;100254.22;;;18.20;100.00
829;BME280;396;52.558;13.188;2023-08-06T01:30:42;100250.31;;;18.21;100.00
829;BME280;396;52.558;13.188;2023-08-06T01:33:14;100251.88;;;18.22;100.00
829;BME280;396;52.558;13.188;2023-08-06T01:35:44;100247.50;;;18.18;100.00
829;BME280;396;52.558;13.188;2023-08-06T01:38:12;100251.03;;;18.18;100.00
829;BME280;396;52.558;13.188;2023-08-06T01:40:39;100242.00;;;18.18;100.00
829;BME280;396;52.558;13.188;2023-08-06T01:43:05;100239.28;;;18.18;100.00
829;BME280;396;52.558;13.188;2023-08-06T01:45:32;100240.81;;;18.15;100.00
829;BME280;396;52.558;13.188;2023-08-06T01:47:59;100240.81;;;18.15;100.00
829;BME280;396;52.558;13.188;2023-08-06T01:50:25;100230.53;;;18.12;100.00
829;BME280;396;52.558;13.188;2023-08-06T01:52:53;100234.44;;;18.11;100.00
829;BME280;396;52.558;13.188;2023-08-06T01:55:20;100236.03;;;18.12;100.00
829;BME280;396;52.558;13.188;2023-08-06T01:57:46;100230.88;;;18.10;100.00
829;BME280;396;52.558;13.188;2023-08-06T02:00:13;100227.34;;;18.10;100.00
829;BME280;396;52.558;13.188;2023-08-06T02:02:40;100221.88;;;18.10;100.00
829;BME280;396;52.558;13.188;2023-08-06T02:05:07;100212.94;;;18.13;100.00
829;BME280;396;52.558;13.188;2023-08-06T02:07:33;100220.00;;;18.14;100.00
829;BME280;396;52.558;13.188;2023-08-06T02:10:01;100221.44;;;18.08;100.00
829;BME280;396;52.558;13.188;2023-08-06T02:12:28;100219.13;;;18.10;100.00
829;BME280;396;52.558;13.188;2023-08-06T02:14:55;100218.63;;;18.04;100.00
829;BME280;396;52.558;13.188;2023-08-06T02:17:21;100220.28;;;18.09;100.00
829;BME280;396;52.558;13.188;2023-08-06T02:19:48;100218.00;;;18.11;100.00
829;BME280;396;52.558;13.188;2023-08-06T02:22:14;100207.81;;;18.11;100.00
829;BME280;396;52.558;13.188;2023-08-06T02:24:41;100215.69;;;18.13;100.00
829;BME280;396;52.558;13.188;2023-08-06T02:27:09;100213.72;;;18.13;100.00
829;BME280;396;52.558;13.188;2023-08-06T02:29:36;100204.28;;;18.11;100.00
829;BME280;396;52.558;13.188;2023-08-06T02:32:03;100206.59;;;18.09;100.00
829;BME280;396;52.558;13.188;2023-08-06T02:34:30;100206.22;;;18.10;100.00
829;BME280;396;52.558;13.188;2023-08-06T02:36:56;100207.81;;;18.11;100.00
829;BME280;396;52.558;13.188;2023-08-06T02:39:23;100202.25;;;18.08;100.00
829;BME280;396;52.558;13.188;2023-08-06T02:41:49;100206.97;;;18.07;100.00
829;BME280;396;52.558;13.188;2023-08-06T02:44:17;100197.94;;;18.07;100.00
829;BME280;396;52.558;13.188;2023-08-06T02:46:44;100195.19;;;18.07;100.00
829;BME280;396;52.558;13.188;2023-08-06T02:49:11;100182.38;;;18.11;100.00
829;BME280;396;52.558;13.188;2023-08-06T02:51:37;100171.41;;;18.11;100.00
829;BME280;396;52.558;13.188;2023-08-06T02:54:04;100168.50;;;18.04;100.00
829;BME280;396;52.558;13.188;2023-08-06T02:56:31;100167.00;;;18.06;100.00
829;BME280;396;52.558;13.188;2023-08-06T02:58:57;100172.13;;;18.08;100.00
829;BME280;396;52.558;13.188;2023-08-06T03:01:26;100166.19;;;18.06;100.00
829;BME280;396;52.558;13.188;2023-08-06T03:03:53;100170.09;;;18.05;100.00
829;BME280;396;52.558;13.188;2023-08-06T03:06:20;100168.94;;;18.06;100.00
829;BME280;396;52.558;13.188;2023-08-06T03:08:47;100167.72;;;18.03;100.00
829;BME280;396;52.558;13.188;2023-08-06T03:11:13;100167.22;;;17.98;100.00
829;BME280;396;52.558;13.188;2023-08-06T03:13:40;100162.81;;;17.93;100.00
829;BME280;396;52.558;13.188;2023-08-06T03:16:07;100157.59;;;17.88;100.00
829;BME280;396;52.558;13.188;2023-08-06T03:18:35;100163.53;;;17.90;100.00
829;BME280;396;52.558;13.188;2023-08-06T03:21:01;100161.72;;;17.78;100.00
829;BME280;396;52.558;13.188;2023-08-06T03:23:28;100163.31;;;17.79;100.00
829;BME280;396;52.558;13.188;2023-08-06T03:25:54;100160.56;;;17.79;100.00
829;BME280;396;52.558;13.188;2023-08-06T03:28:21;100161.47;;;17.68;100.00
829;BME280;396;52.558;13.188;2023-08-06T03:30:48;100155.50;;;17.62;100.00
829;BME280;396;52.558;13.188;2023-08-06T03:33:15;100151.72;;;17.70;100.00
829;BME280;396;52.558;13.188;2023-08-06T03:35:43;100157.50;;;17.65;100.00
829;BME280;396;52.558;13.188;2023-08-06T03:38:09;100155.91;;;17.64;100.00
829;BME280;396;52.558;13.188;2023-08-06T03:40:36;100146.13;;;17.63;100.00
829;BME280;396;52.558;13.188;2023-08-06T03:43:03;100141.06;;;17.65;100.00
829;BME280;396;52.558;13.188;2023-08-06T03:45:29;100141.16;;;17.69;100.00
829;BME280;396;52.558;13.188;2023-08-06T03:47:56;100133.28;;;17.67;100.00
829;BME280;396;52.558;13.188;2023-08-06T03:50:22;100134.00;;;17.64;100.00
829;BME280;396;52.558;13.188;2023-08-06T03:52:50;100125.78;;;17.64;100.00
829;BME280;396;52.558;13.188;2023-08-06T03:55:17;100124.22;;;17.63;100.00
829;BME280;396;52.558;13.188;2023-08-06T03:57:43;100123.34;;;17.59;100.00
829;BME280;396;52.558;13.188;2023-08-06T04:00:11;100122.09;;;17.56;100.00
829;BME280;396;52.558;13.188;2023-08-06T04:02:37;100113.00;;;17.52;100.00
829;BME280;396;52.558;13.188;2023-08-06T04:05:04;100119.38;;;17.56;100.00
829;BME280;396;52.558;13.188;2023-08-06T04:07:31;100105.59;;;17.53;100.00
829;BME280;396;52.558;13.188;2023-08-06T04:10:00;100099.31;;;17.52;100.00
829;BME280;396;52.558;13.188;2023-08-06T04:12:28;100097.75;;;17.51;100.00
829;BME280;396;52.558;13.188;2023-08-06T04:14:56;100096.94;;;17.51;100.00
829;BME280;396;52.558;13.188;2023-08-06T04:17:23;100093.34;;;17.47;100.00
829;BME280;396;52.558;13.188;2023-08-06T04:19:51;100096.09;;;17.47;100.00
829;BME280;396;52.558;13.188;2023-08-06T04:22:18;100090.09;;;17.41;100.00
829;BME280;396;52.558;13.188;2023-08-06T04:24:45;100088.16;;;17.42;100.00
829;BME280;396;52.558;13.188;2023-08-06T04:27:14;100081.53;;;17.43;100.00
829;BME280;396;52.558;13.188;2023-08-06T04:29:42;100098.41;;;17.45;100.00
829;BME280;396;52.558;13.188;2023-08-06T04:32:09;100092.94;;;17.45;100.00
829;BME280;396;52.558;13.188;2023-08-06T04:34:37;100086.63;;;17.44;100.00
829;BME280;396;52.558;13.188;2023-08-06T04:37:04;100089.75;;;17.43;100.00
829;BME280;396;52.558;13.188;2023-08-06T04:39:31;100071.66;;;17.38;100.00
829;BME280;396;52.558;13.188;2023-08-06T04:41:57;100071.56;;;17.34;100.00
829;BME280;396;52.558;13.188;2023-08-06T04:44:25;100070.00;;;17.33;100.00
829;BME280;396;52.558;13.188;2023-08-06T04:46:52;100062.16;;;17.32;100.00
829;BME280;396;52.558;13.188;2023-08-06T04:49:20;100069.69;;;17.38;100.00
829;BME280;396;52.558;13.188;2023-08-06T04:51:46;100056.75;;;17.35;100.00
829;BME280;396;52.558;13.188;2023-08-06T04:54:13;100056.00;;;17.38;100.00
829;BME280;396;52.558;13.188;2023-08-06T04:56:40;100049.47;;;17.43;100.00
829;BME280;396;52.558;13.188;2023-08-06T04:59:06;100052.13;;;17.39;100.00
829;BME280;396;52.558;13.188;2023-08-06T05:01:34;100051.13;;;17.48;100.00
829;BME280;396;52.558;13.188;2023-08-06T05:04:01;100046.09;;;17.50;100.00
829;BME280;396;52.558;13.188;2023-08-06T05:06:28;100048.53;;;17.55;100.00
829;BME280;396;52.558;13.188;2023-08-06T05:08:54;100048.94;;;17.57;100.00
829;BME280;396;52.558;13.188;2023-08-06T05:11:21;100045.78;;;17.55;100.00
829;BME280;396;52.558;13.188;2023-08-06T05:13:49;100045.41;;;17.56;100.00
829;BME280;396;52.558;13.188;2023-08-06T05:16:16;100045.28;;;17.49;100.00
829;BME280;396;52.558;13.188;2023-08-06T05:18:43;100047.50;;;17.44;100.00
829;BME280;396;52.558;13.188;2023-08-06T05:21:10;100039.16;;;17.36;100.00
829;BME280;396;52.558;13.188;2023-08-06T05:23:37;100038.44;;;17.39;100.00
829;BME280;396;52.558;13.188;2023-08-06T05:26:03;100031.88;;;17.44;100.00
829;BME280;396;52.558;13.188;2023-08-06T05:28:30;100032.47;;;17.53;100.00
829;BME280;396;52.558;13.188;2023-08-06T05:30:57;100022.72;;;17.56;100.00
829;BME280;396;52.558;13.188;2023-08-06T05:33:23;100029.84;;;17.60;100.00
829;BME280;396;52.558;13.188;2023-08-06T05:35:51;100014.28;;;17.64;100.00
829;BME280;396;52.558;13.188;2023-08-06T05:38:18;100016.22;;;17.64;100.00
829;BME280;396;52.558;13.188;2023-08-06T05:40:44;100010.75;;;17.64;100.00
829;BME280;396;52.558;13.188;2023-08-06T05:43:11;100019.25;;;17.59;100.00
829;BME280;396;52.558;13.188;2023-08-06T05:45:38;100005.28;;;17.64;100.00
829;BME280;396;52.558;13.188;2023-08-06T05:48:04;100009.66;;;17.69;100.00
829;BME280;396;52.558;13.188;2023-08-06T05:50:31;100014.53;;;17.75;100.00
829;BME280;396;52.558;13.188;2023-08-06T05:52:59;100016.50;;;17.78;100.00
829;BME280;396;52.558;13.188;2023-08-06T05:55:25;100009.16;;;17.82;100.00
829;BME280;396;52.558;13.188;2023-08-06T05:57:52;100019.09;;;17.90;100.00
829;BME280;396;52.558;13.188;2023-08-06T06:00:19;100024.28;;;17.96;100.00
829;BME280;396;52.558;13.188;2023-08-06T06:02:45;100013.38;;;17.99;100.00
829;BME280;396;52.558;13.188;2023-08-06T06:05:12;100017.34;;;18.02;100.00
829;BME280;396;52.558;13.188;2023-08-06T06:07:39;100025.91;;;18.00;100.00
829;BME280;396;52.558;13.188;2023-08-06T06:10:08;100021.53;;;17.96;100.00
829;BME280;396;52.558;13.188;2023-08-06T06:12:34;100022.00;;;18.01;100.00
829;BME280;396;52.558;13.188;2023-08-06T06:15:01;100018.91;;;18.03;100.00
829;BME280;396;52.558;13.188;2023-08-06T06:17:29;100014.59;;;18.02;100.00
829;BME280;396;52.558;13.188;2023-08-06T06:19:55;100019.00;;;18.06;100.00
829;BME280;396;52.558;13.188;2023-08-06T06:22:22;100018.16;;;18.06;100.00
829;BME280;396;52.558;13.188;2023-08-06T06:24:48;100012.69;;;18.06;100.00
829;BME280;396;52.558;13.188;2023-08-06T06:27:16;100006.06;;;18.07;100.00
829;BME280;396;52.558;13.188;2023-08-06T06:29:43;100013.50;;;18.06;100.00
829;BME280;396;52.558;13.188;2023-08-06T06:32:10;100008.81;;;18.07;100.00
829;BME280;396;52.558;13.188;2023-08-06T06:34:36;100008.03;;;18.06;100.00
829;BME280;396;52.558;13.188;2023-08-06T06:37:04;100010.47;;;18.11;100.00
829;BME280;396;52.558;13.188;2023-08-06T06:39:30;99996.13;;;18.22;100.00
829;BME280;396;52.558;13.188;2023-08-06T06:41:57;100000.50;;;18.26;100.00
829;BME280;396;52.558;13.188;2023-08-06T06:44:25;100004.09;;;18.30;100.00
829;BME280;396;52.558;13.188;2023-08-06T06:46:51;100004.50;;;18.32;100.00
829;BME280;396;52.558;13.188;2023-08-06T06:49:18;100008.88;;;18.33;100.00
829;BME280;396;52.558;13.188;2023-08-06T06:51:45;100001.38;;;18.30;100.00
829;BME280;396;52.558;13.188;2023-08-06T06:54:11;100002.16;;;18.31;100.00
829;BME280;396;52.558;13.188;2023-08-06T06:56:38;100007.25;;;18.32;100.00
829;BME280;396;52.558;13.188;2023-08-06T06:59:04;100003.38;;;18.33;100.00
829;BME280;396;52.558;13.188;2023-08-06T07:01:32;100004.09;;;18.30;100.00
829;BME280;396;52.558;13.188;2023-08-06T07:03:59;100002.22;;;18.34;100.00
829;BME280;396;52.558;13.188;2023-08-06T07:06:29;100006.06;;;18.30;100.00
829;BME280;396;52.558;13.188;2023-08-06T07:08:56;100007.94;;;18.26;100.00
829;BME280;396;52.558;13.188;2023-08-06T07:11:23;99996.25;;;18.29;100.00
829;BME280;396;52.558;13.188;2023-08-06T07:13:50;100002.94;;;18.31;100.00
829;BME280;396;52.558;13.188;2023-08-06T07:16:22;100009.22;;;18.32;100.00
829;BME280;396;52.558;13.188;2023-08-06T07:18:51;100012.88;;;18.39;100.00
829;BME280;396;52.558;13.188;2023-08-06T07:21:17;100003.91;;;18.43;100.00
829;BME280;396;52.558;13.188;2023-08-06T07:23:45;99995.38;;;18.48;100.00
829;BME280;396;52.558;13.188;2023-08-06T07:26:15;100000.91;;;18.51;100.00
829;BME280;396;52.558;13.188;2023-08-06T07:28:41;100005.50;;;18.44;100.00
829;BME280;396;52.558;13.188;2023-08-06T07:31:08;100004.63;;;18.39;100.00
829;BME280;396;52.558;13.188;2023-08-06T07:33:34;100012.50;;;18.41;100.00
829;BME280;396;52.558;13.188;2023-08-06T07:36:09;100007.84;;;18.45;100.00
829;BME280;396;52.558;13.188;2023-08-06T07:38:36;100006.28;;;18.44;100.00
829;BME280;396;52.558;13.188;2023-08-06T07:41:03;100005.91;;;18.46;100.00
829;BME280;396;52.558;13.188;2023-08-06T07:43:29;100008.63;;;18.46;100.00
829;BME280;396;52.558;13.188;2023-08-06T07:45:57;100002.50;;;18.52;100.00
829;BME280;396;52.558;13.188;2023-08-06T07:48:24;100010.34;;;18.54;100.00
829;BME280;396;52.558;13.188;2023-08-06T07:50:51;100005.28;;;18.56;100.00
829;BME280;396;52.558;13.188;2023-08-06T07:53:20;100005.69;;;18.58;100.00
829;BME280;396;52.558;13.188;2023-08-06T07:55:49;100001.84;;;18.62;100.00
829;BME280;396;52.558;13.188;2023-08-06T07:58:16;100004.97;;;18.61;100.00
829;BME280;396;52.558;13.188;2023-08-06T08:00:42;100003.81;;;18.62;100.00
829;BME280;396;52.558;13.188;2023-08-06T08:03:11;99998.75;;;18.64;100.00
829;BME280;396;52.558;13.188;2023-08-06T08:05:38;100001.44;;;18.60;100.00
829;BME280;396;52.558;13.188;2023-08-06T08:08:05;99995.34;;;18.71;100.00
829;BME280;396;52.558;13.188;2023-08-06T08:10:33;100000.56;;;18.79;100.00
829;BME280;396;52.558;13.188;2023-08-06T08:13:00;100000.59;;;18.83;100.00
829;BME280;396;52.558;13.188;2023-08-06T08:15:28;99997.53;;;18.88;100.00
829;BME280;396;52.558;13.188;2023-08-06T08:17:54;99994.41;;;18.89;100.00
829;BME280;396;52.558;13.188;2023-08-06T08:20:21;99996.41;;;18.93;100.00
829;BME280;396;52.558;13.188;2023-08-06T08:22:48;99993.72;;;18.96;100.00
829;BME280;396;52.558;13.188;2023-08-06T08:25:15;99987.53;;;19.03;100.00
829;BME280;396;52.558;13.188;2023-08-06T08:27:44;99982.88;;;19.07;100.00
829;BME280;396;52.558;13.188;2023-08-06T08:30:10;99978.16;;;19.07;100.00
829;BME280;396;52.558;13.188;2023-08-06T08:32:37;99976.22;;;19.08;100.00
829;BME280;396;52.558;13.188;2023-08-06T08:35:04;99974.31;;;19.12;100.00
829;BME280;396;52.558;13.188;2023-08-06T08:37:31;99976.38;;;19.19;100.00
829;BME280;396;52.558;13.188;2023-08-06T08:39:57;99970.13;;;19.22;100.00
829;BME280;396;52.558;13.188;2023-08-06T08:42:26;99964.22;;;19.20;100.00
829;BME280;396;52.558;13.188;2023-08-06T08:44:54;99972.88;;;19.22;100.00
829;BME280;396;52.558;13.188;2023-08-06T08:47:22;99971.75;;;19.26;100.00
829;BME280;396;52.558;13.188;2023-08-06T08:49:51;99962.75;;;19.29;100.00
829;BME280;396;52.558;13.188;2023-08-06T08:52:19;99967.50;;;19.32;100.00
829;BME280;396;52.558;13.188;2023-08-06T08:54:46;99961.56;;;19.27;100.00
829;BME280;396;52.558;13.188;2023-08-06T08:57:16;99955.56;;;19.18;100.00
829;BME280;396;52.558;13.188;2023-08-06T08:59:43;99950.38;;;19.09;100.00
829;BME280;396;52.558;13.188;2023-08-06T09:02:13;99952.28;;;19.05;100.00
829;BME280;396;52.558;13.188;2023-08-06T09:04:41;99949.03;;;18.96;100.00
829;BME280;396;52.558;13.188;2023-08-06T09:07:11;99938.78;;;18.93;100.00
829;BME280;396;52.558;13.188;2023-08-06T09:09:40;99944.16;;;18.85;100.00
829;BME280;396;52.558;13.188;2023-08-06T09:12:12;99934.81;;;18.90;100.00
829;BME280;396;52.558;13.188;2023-08-06T09:14:38;99932.91;;;18.90;100.00
829;BME280;396;52.558;13.188;2023-08-06T09:17:05;99934.47;;;18.92;100.00
829;BME280;396;52.558;13.188;2023-08-06T09:19:33;99928.22;;;18.95;100.00
829;BME280;396;52.558;13.188;2023-08-06T09:22:00;99932.34;;;18.78;100.00
829;BME280;396;52.558;13.188;2023-08-06T09:24:26;99926.06;;;18.77;100.00
829;BME280;396;52.558;13.188;2023-08-06T09:26:53;99922.50;;;18.77;100.00
829;BME280;396;52.558;13.188;2023-08-06T09:29:20;99915.16;;;18.84;100.00
829;BME280;396;52.558;13.188;2023-08-06T09:31:48;99916.00;;;18.88;100.00
829;BME280;396;52.558;13.188;2023-08-06T09:34:17;99910.56;;;18.92;100.00
829;BME280;396;52.558;13.188;2023-08-06T09:36:47;99914.53;;;18.98;100.00
829;BME280;396;52.558;13.188;2023-08-06T09:39:15;99910.66;;;18.99;100.00
829;BME280;396;52.558;13.188;2023-08-06T09:41:42;99911.94;;;19.09;100.00
829;BME280;396;52.558;13.188;2023-08-06T09:44:15;99901.34;;;19.11;100.00
829;BME280;396;52.558;13.188;2023-08-06T09:46:43;99902.09;;;19.08;100.00
829;BME280;396;52.558;13.188;2023-08-06T09:49:13;99895.47;;;19.09;100.00
829;BME280;396;52.558;13.188;2023-08-06T09:51:39;99888.78;;;19.10;100.00
829;BME280;396;52.558;13.188;2023-08-06T09:54:08;99898.25;;;19.12;100.00
829;BME280;396;52.558;13.188;2023-08-06T09:56:38;99889.69;;;19.21;100.00
829;BME280;396;52.558;13.188;2023-08-06T09:59:05;99891.31;;;19.26;100.00
829;BME280;396;52.558;13.188;2023-08-06T10:01:33;99881.13;;;19.26;100.00
829;BME280;396;52.558;13.188;2023-08-06T10:04:00;99883.41;;;19.21;100.00
829;BME280;396;52.558;13.188;2023-08-06T10:06:28;99877.56;;;19.22;100.00
829;BME280;396;52.558;13.188;2023-08-06T10:08:55;99881.03;;;19.19;100.00
829;BME280;396;52.558;13.188;2023-08-06T10:11:24;99874.63;;;19.04;100.00
829;BME280;396;52.558;13.188;2023-08-06T10:13:56;99884.88;;;19.11;100.00
829;BME280;396;52.558;13.188;2023-08-06T10:16:25;99877.06;;;19.13;100.00
829;BME280;396;52.558;13.188;2023-08-06T10:18:53;99872.38;;;19.13;100.00
829;BME280;396;52.558;13.188;2023-08-06T10:21:23;99870.91;;;19.23;100.00
829;BME280;396;52.558;13.188;2023-08-06T10:23:54;99874.16;;;19.36;100.00
829;BME280;396;52.558;13.188;2023-08-06T10:26:25;99873.03;;;19.40;100.00
829;BME280;396;52.558;13.188;2023-08-06T10:28:52;99862.25;;;19.25;100.00
829;BME280;396;52.558;13.188;2023-08-06T10:31:19;99864.22;;;19.24;100.00
829;BME280;396;52.558;13.188;2023-08-06T10:33:46;99861.75;;;19.12;100.00
829;BME280;396;52.558;13.188;2023-08-06T10:36:14;99863.41;;;19.20;100.00
829;BME280;396;52.558;13.188;2023-08-06T10:38:44;99857.88;;;19.16;100.00
829;BME280;396;52.558;13.188;2023-08-06T10:41:23;99868.06;;;19.16;100.00
829;BME280;396;52.558;13.188;2023-08-06T10:44:05;99860.66;;;19.20;100.00
829;BME280;396;52.558;13.188;2023-08-06T10:46:32;99859.47;;;19.21;100.00
829;BME280;396;52.558;13.188;2023-08-06T10:48:59;99854.81;;;19.25;100.00
829;BME280;396;52.558;13.188;2023-08-06T10:51:26;99849.41;;;19.32;100.00
829;BME280;396;52.558;13.188;2023-08-06T10:53:53;99849.84;;;19.38;100.00
829;BME280;396;52.558;13.188;2023-08-06T10:56:22;99854.63;;;19.45;100.00
829;BME280;396;52.558;13.188;2023-08-06T10:58:50;99848.69;;;19.39;100.00
829;BME280;396;52.558;13.188;2023-08-06T11:01:18;99842.69;;;19.26;100.00
829;BME280;396;52.558;13.188;2023-08-06T11:03:46;99843.00;;;19.21;100.00
829;BME280;396;52.558;13.188;2023-08-06T11:06:17;99837.41;;;19.10;100.00
829;BME280;396;52.558;13.188;2023-08-06T11:08:47;99833.09;;;19.09;100.00
829;BME280;396;52.558;13.188;2023-08-06T11:11:15;99840.91;;;19.07;100.00
829;BME280;396;52.558;13.188;2023-08-06T11:13:43;99835.72;;;18.99;100.00
829;BME280;396;52.558;13.188;2023-08-06T11:16:11;99825.47;;;18.92;100.00
829;BME280;396;52.558;13.188;2023-08-06T11:18:41;99827.09;;;18.97;100.00
829;BME280;396;52.558;13.188;2023-08-06T11:21:08;99825.09;;;18.94;100.00
829;BME280;396;52.558;13.188;2023-08-06T11:23:35;99818.81;;;18.93;100.00
829;BME280;396;52.558;13.188;2023-08-06T11:26:02;99814.88;;;18.94;100.00
829;BME280;396;52.558;13.188;2023-08-06T11:28:28;99819.16;;;18.88;100.00
829;BME280;396;52.558;13.188;2023-08-06T11:30:55;99812.88;;;18.87;100.00
829;BME280;396;52.558;13.188;2023-08-06T11:33:23;99803.47;;;18.88;100.00
829;BME280;396;52.558;13.188;2023-08-06T11:35:52;99809.34;;;18.87;100.00
829;BME280;396;52.558;13.188;2023-08-06T11:38:18;99799.06;;;18.80;100.00
829;BME280;396;52.558;13.188;2023-08-06T11:40:45;99796.72;;;18.79;100.00
829;BME280;396;52.558;13.188;2023-08-06T11:43:12;99788.44;;;18.75;100.00
829;BME280;396;52.558;13.188;2023-08-06T11:45:39;99791.25;;;18.82;100.00
829;BME280;396;52.558;13.188;2023-08-06T11:48:06;99790.91;;;18.87;100.00
829;BME280;396;52.558;13.188;2023-08-06T11:50:36;99786.19;;;18.84;100.00
829;BME280;396;52.558;13.188;2023-08-06T11:53:05;99779.16;;;18.87;100.00
829;BME280;396;52.558;13.188;2023-08-06T11:55:32;99780.44;;;18.97;100.00
829;BME280;396;52.558;13.188;2023-08-06T11:58:02;99777.28;;;18.98;100.00
829;BME280;396;52.558;13.188;2023-08-06T12:00:29;99771.75;;;18.95;100.00
829;BME280;396;52.558;13.188;2023-08-06T12:02:56;99763.13;;;18.93;100.00
829;BME280;396;52.558;13.188;2023-08-06T12:05:29;99767.06;;;18.92;100.00
829;BME280;396;52.558;13.188;2023-08-06T12:07:57;99772.47;;;18.84;100.00
829;BME280;396;52.558;13.188;2023-08-06T12:10:26;99764.78;;;18.67;100.00
829;BME280;396;52.558;13.188;2023-08-06T12:12:53;99762.00;;;18.60;100.00
829;BME280;396;52.558;13.188;2023-08-06T12:15:21;99761.94;;;18.56;100.00
829;BME280;396;52.558;13.188;2023-08-06T12:17:49;99766.16;;;18.47;100.00
829;BME280;396;52.558;13.188;2023-08-06T12:20:15;99761.31;;;18.33;100.00
829;BME280;396;52.558;13.188;2023-08-06T12:22:42;99759.34;;;18.33;100.00
829;BME280;396;52.558;13.188;2023-08-06T12:25:10;99761.66;;;18.31;100.00
829;BME280;396;52.558;13.188;2023-08-06T12:27:40;99759.25;;;18.26;100.00
829;BME280;396;52.558;13.188;2023-08-06T12:30:08;99777.09;;;18.13;100.00
829;BME280;396;52.558;13.188;2023-08-06T12:32:36;99778.94;;;17.75;100.00
829;BME280;396;52.558;13.188;2023-08-06T12:35:03;99779.16;;;17.67;100.00
829;BME280;396;52.558;13.188;2023-08-06T12:37:30;99778.94;;;17.52;100.00
829;BME280;396;52.558;13.188;2023-08-06T12:39:56;99775.06;;;17.30;100.00
829;BME280;396;52.558;13.188;2023-08-06T12:42:23;99774.56;;;17.25;100.00
829;BME280;396;52.558;13.188;2023-08-06T12:44:52;99778.41;;;17.20;100.00
829;BME280;396;52.558;13.188;2023-08-06T12:47:19;99779.91;;;17.18;100.00
829;BME280;396;52.558;13.188;2023-08-06T12:49:46;99780.47;;;17.04;100.00
829;BME280;396;52.558;13.188;2023-08-06T12:52:12;99771.28;;;16.93;100.00
829;BME280;396;52.558;13.188;2023-08-06T12:54:40;99767.25;;;16.86;100.00
829;BME280;396;52.558;13.188;2023-08-06T12:57:07;99765.75;;;16.89;100.00
829;BME280;396;52.558;13.188;2023-08-06T12:59:33;99766.75;;;17.00;100.00
829;BME280;396;52.558;13.188;2023-08-06T13:02:03;99761.44;;;17.11;100.00
829;BME280;396;52.558;13.188;2023-08-06T13:04:30;99767.91;;;17.22;100.00
829;BME280;396;52.558;13.188;2023-08-06T13:06:56;99770.38;;;17.31;100.00
829;BME280;396;52.558;13.188;2023-08-06T13:09:23;99751.44;;;17.45;100.00
829;BME280;396;52.558;13.188;2023-08-06T13:11:50;99753.94;;;17.54;100.00
829;BME280;396;52.558;13.188;2023-08-06T13:14:16;99761.34;;;17.53;100.00
829;BME280;396;52.558;13.188;2023-08-06T13:16:43;99759.94;;;17.63;100.00